sensor_id;sensor_type;location;lat;lon;timestamp;temperature;humidity
7970;DHT22;4030;52.362;9.206;2023-11-19T00:00:25;9.30;99.30
7970;DHT22;4030;52.362;9.206;2023-11-19T00:02:51;9.40;99.40
7970;DHT22;4030;52.362;9.206;2023-11-19T00:05:18;9.30;99.40
7970;DHT22;4030;52.362;9.206;2023-11-19T00:07:44;9.40;99.50
7970;DHT22;4030;52.362;9.206;2023-11-19T00:10:10;9.40;99.50
7970;DHT22;4030;52.362;9.206;2023-11-19T00:12:38;9.40;99.60
7970;DHT22;4030;52.362;9.206;2023-11-19T00:15:06;9.40;99.70
7970;DHT22;4030;52.362;9.206;2023-11-19T00:17:39;9.50;99.90
7970;DHT22;4030;52.362;9.206;2023-11-19T00:20:14;9.50;99.90
7970;DHT22;4030;52.362;9.206;2023-11-19T00:22:42;9.50;99.90
7970;DHT22;4030;52.362;9.206;2023-11-19T00:25:09;9.50;99.90
7970;DHT22;4030;52.362;9.206;2023-11-19T00:27:35;9.50;99.90
7970;DHT22;4030;52.362;9.206;2023-11-19T00:30:03;9.60;99.90
7970;DHT22;4030;52.362;9.206;2023-11-19T00:32:31;9.60;99.90
7970;DHT22;4030;52.362;9.206;2023-11-19T00:34:57;9.60;99.90
7970;DHT22;4030;52.362;9.206;2023-11-19T00:37:23;9.60;99.90
7970;DHT22;4030;52.362;9.206;2023-11-19T00:39:49;9.60;99.90
7970;DHT22;4030;52.362;9.206;2023-11-19T00:42:14;9.60;99.90
7970;DHT22;4030;52.362;9.206;2023-11-19T00:44:40;9.60;99.90
7970;DHT22;4030;52.362;9.206;2023-11-19T00:47:07;9.60;99.90
7970;DHT22;4030;52.362;9.206;2023-11-19T00:49:32;9.70;99.90
7970;DHT22;4030;52.362;9.206;2023-11-19T00:51:59;9.70;99.90
7970;DHT22;4030;52.362;9.206;2023-11-19T00:54:25;9.70;99.90
7970;DHT22;4030;52.362;9.206;2023-11-19T00:56:55;9.70;99.90
7970;DHT22;4030;52.362;9.206;2023-11-19T00:59:21;9.70;99.90
7970;DHT22;4030;52.362;9.206;2023-11-19T01:01:47;9.70;99.90
7970;DHT22;4030;52.362;9.206;2023-11-19T01:04:16;9.70;99.90
7970;DHT22;4030;52.362;9.206;2023-11-19T01:06:42;9.70;99.90
7970;DHT22;4030;52.362;9.206;2023-11-19T01:09:08;9.80;99.90
7970;DHT22;4030;52.362;9.206;2023-11-19T01:11:34;9.80;99.90
7970;DHT22;4030;52.362;9.206;2023-11-19T01:14:00;9.80;99.90
7970;DHT22;4030;52.362;9.206;2023-11-19T01:16:26;9.80;99.90
7970;DHT22;4030;52.362;9.206;2023-11-19T01:18:52;9.80;99.90
7970;DHT22;4030;52.362;9.206;2023-11-19T01:21:18;9.80;99.90
7970;DHT22;4030;52.362;9.206;2023-11-19T01:23:44;9.80;99.90
7970;DHT22;4030;52.362;9.206;2023-11-19T01:26:10;9.90;99.90
7970;DHT22;4030;52.362;9.206;2023-11-19T01:28:36;9.90;99.90
7970;DHT22;4030;52.362;9.206;2023-11-19T01:31:05;9.90;99.90
7970;DHT22;4030;52.362;9.206;2023-11-19T01:33:33;9.90;99.90
7970;DHT22;4030;52.362;9.206;2023-11-19T01:35:58;9.90;99.90
7970;DHT22;4030;52.362;9.206;2023-11-19T01:38:24;9.90;99.90
7970;DHT22;4030;52.362;9.206;2023-11-19T01:40:50;9.90;99.90
7970;DHT22;4030;52.362;9.206;2023-11-19T01:43:38;10.00;99.90
7970;DHT22;4030;52.362;9.206;2023-11-19T01:46:07;10.00;99.90
7970;DHT22;4030;52.362;9.206;2023-11-19T01:48:36;10.00;99.90
7970;DHT22;4030;52.362;9.206;2023-11-19T01:51:05;10.00;99.90
7970;DHT22;4030;52.362;9.206;2023-11-19T01:53:32;10.00;99.90
7970;DHT22;4030;52.362;9.206;2023-11-19T01:56:00;10.00;99.90
7970;DHT22;4030;52.362;9.206;2023-11-19T01:58:26;10.00;99.90
7970;DHT22;4030;52.362;9.206;2023-11-19T02:00:52;10.00;99.90
7970;DHT22;4030;52.362;9.206;2023-11-19T02:03:19;10.00;99.90
7970;DHT22;4030;52.362;9.206;2023-11-19T02:05:45;10.00;99.90
7970;DHT22;4030;52.362;9.206;2023-11-19T02:08:14;10.10;99.90
7970;DHT22;4030;52.362;9.206;2023-11-19T02:10:40;10.10;99.90
7970;DHT22;4030;52.362;9.206;2023-11-19T02:13:05;10.10;99.90
7970;DHT22;4030;52.362;9.206;2023-11-19T02:15:35;10.10;99.90
7970;DHT22;4030;52.362;9.206;2023-11-19T02:18:39;10.10;99.90
7970;DHT22;4030;52.362;9.206;2023-11-19T02:21:05;10.10;99.90
7970;DHT22;4030;52.362;9.206;2023-11-19T02:23:31;10.10;99.90
7970;DHT22;4030;52.362;9.206;2023-11-19T02:26:18;10.10;99.90
7970;DHT22;4030;52.362;9.206;2023-11-19T02:29:11;10.10;99.90
7970;DHT22;4030;52.362;9.206;2023-11-19T02:31:37;10.10;99.90
7970;DHT22;4030;52.362;9.206;2023-11-19T02:34:03;10.20;99.90
7970;DHT22;4030;52.362;9.206;2023-11-19T02:36:28;10.20;99.90
7970;DHT22;4030;52.362;9.206;2023-11-19T02:38:54;10.20;99.90
7970;DHT22;4030;52.362;9.206;2023-11-19T02:41:36;10.20;99.90
7970;DHT22;4030;52.362;9.206;2023-11-19T02:44:01;10.20;99.90
7970;DHT22;4030;52.362;9.206;2023-11-19T02:46:28;10.20;99.90
7970;DHT22;4030;52.362;9.206;2023-11-19T02:48:54;10.20;99.90
7970;DHT22;4030;52.362;9.206;2023-11-19T02:51:20;10.30;99.90
7970;DHT22;4030;52.362;9.206;2023-11-19T02:53:45;10.20;99.90
7970;DHT22;4030;52.362;9.206;2023-11-19T02:56:13;10.30;99.90
7970;DHT22;4030;52.362;9.206;2023-11-19T02:58:50;10.30;99.90
7970;DHT22;4030;52.362;9.206;2023-11-19T03:01:26;10.30;99.90
7970;DHT22;4030;52.362;9.206;2023-11-19T03:03:56;10.30;99.90
7970;DHT22;4030;52.362;9.206;2023-11-19T03:06:23;10.30;99.90
7970;DHT22;4030;52.362;9.206;2023-11-19T03:08:48;10.30;99.90
7970;DHT22;4030;52.362;9.206;2023-11-19T03:11:14;10.40;99.90
7970;DHT22;4030;52.362;9.206;2023-11-19T03:13:40;10.40;99.90
7970;DHT22;4030;52.362;9.206;2023-11-19T03:16:07;10.30;99.90
7970;DHT22;4030;52.362;9.206;2023-11-19T03:18:33;10.40;99.90
7970;DHT22;4030;52.362;9.206;2023-11-19T03:20:58;10.40;99.90
7970;DHT22;4030;52.362;9.206;2023-11-19T03:23:24;10.40;99.90
7970;DHT22;4030;52.362;9.206;2023-11-19T03:25:53;10.40;99.90
7970;DHT22;4030;52.362;9.206;2023-11-19T03:28:19;10.40;99.90
7970;DHT22;4030;52.362;9.206;2023-11-19T03:30:45;10.40;99.90
7970;DHT22;4030;52.362;9.206;2023-11-19T03:33:10;10.50;99.90
7970;DHT22;4030;52.362;9.206;2023-11-19T03:35:36;10.50;99.90
7970;DHT22;4030;52.362;9.206;2023-11-19T03:38:02;10.50;99.90
7970;DHT22;4030;52.362;9.206;2023-11-19T03:40:28;10.50;99.90
7970;DHT22;4030;52.362;9.206;2023-11-19T03:42:56;10.50;99.90
7970;DHT22;4030;52.362;9.206;2023-11-19T03:45:23;10.50;99.90
7970;DHT22;4030;52.362;9.206;2023-11-19T03:47:50;10.50;99.90
7970;DHT22;4030;52.362;9.206;2023-11-19T03:50:16;10.60;99.90
7970;DHT22;4030;52.362;9.206;2023-11-19T03:52:42;10.60;99.90
7970;DHT22;4030;52.362;9.206;2023-11-19T03:55:07;10.60;99.90
7970;DHT22;4030;52.362;9.206;2023-11-19T03:57:34;10.60;99.90
7970;DHT22;4030;52.362;9.206;2023-11-19T04:00:00;10.60;99.90
7970;DHT22;4030;52.362;9.206;2023-11-19T04:02:32;10.60;99.90
7970;DHT22;4030;52.362;9.206;2023-11-19T04:04:58;10.60;99.90
7970;DHT22;4030;52.362;9.206;2023-11-19T04:07:23;10.70;99.90
7970;DHT22;4030;52.362;9.206;2023-11-19T04:09:49;10.60;99.90
7970;DHT22;4030;52.362;9.206;2023-11-19T04:12:15;10.70;99.90
7970;DHT22;4030;52.362;9.206;2023-11-19T04:14:41;10.70;99.90
7970;DHT22;4030;52.362;9.206;2023-11-19T04:17:06;10.70;99.90
7970;DHT22;4030;52.362;9.206;2023-11-19T04:19:32;10.70;99.90
7970;DHT22;4030;52.362;9.206;2023-11-19T04:21:58;10.70;99.90
7970;DHT22;4030;52.362;9.206;2023-11-19T04:24:24;10.70;99.90
7970;DHT22;4030;52.362;9.206;2023-11-19T04:26:49;10.80;99.90
7970;DHT22;4030;52.362;9.206;2023-11-19T04:29:16;10.80;99.90
7970;DHT22;4030;52.362;9.206;2023-11-19T04:31:45;10.80;99.90
7970;DHT22;4030;52.362;9.206;2023-11-19T04:34:11;10.80;99.90
7970;DHT22;4030;52.362;9.206;2023-11-19T04:36:37;10.80;99.90
7970;DHT22;4030;52.362;9.206;2023-11-19T04:39:03;10.80;99.90
7970;DHT22;4030;52.362;9.206;2023-11-19T04:41:50;10.80;99.90
7970;DHT22;4030;52.362;9.206;2023-11-19T04:44:20;10.80;99.90
7970;DHT22;4030;52.362;9.206;2023-11-19T04:46:46;10.90;99.90
7970;DHT22;4030;52.362;9.206;2023-11-19T04:49:12;10.90;99.90
7970;DHT22;4030;52.362;9.206;2023-11-19T04:51:42;10.90;99.90
7970;DHT22;4030;52.362;9.206;2023-11-19T04:54:10;10.90;99.90
7970;DHT22;4030;52.362;9.206;2023-11-19T04:56:36;10.90;99.90
7970;DHT22;4030;52.362;9.206;2023-11-19T04:59:06;10.90;99.90
7970;DHT22;4030;52.362;9.206;2023-11-19T05:01:32;10.90;99.90
7970;DHT22;4030;52.362;9.206;2023-11-19T05:03:58;10.90;99.90
7970;DHT22;4030;52.362;9.206;2023-11-19T05:06:27;10.90;99.90
7970;DHT22;4030;52.362;9.206;2023-11-19T05:08:53;10.90;99.90
7970;DHT22;4030;52.362;9.206;2023-11-19T05:11:19;10.90;99.90
7970;DHT22;4030;52.362;9.206;2023-11-19T05:13:45;10.90;99.90
7970;DHT22;4030;52.362;9.206;2023-11-19T05:16:11;10.90;99.90
7970;DHT22;4030;52.362;9.206;2023-11-19T05:18:40;10.90;99.90
7970;DHT22;4030;52.362;9.206;2023-11-19T05:21:06;11.00;99.90
7970;DHT22;4030;52.362;9.206;2023-11-19T05:23:33;11.00;99.90
7970;DHT22;4030;52.362;9.206;2023-11-19T05:26:02;11.00;99.90
7970;DHT22;4030;52.362;9.206;2023-11-19T05:28:27;11.00;99.90
7970;DHT22;4030;52.362;9.206;2023-11-19T05:30:54;11.00;99.90
7970;DHT22;4030;52.362;9.206;2023-11-19T05:33:19;11.00;99.90
7970;DHT22;4030;52.362;9.206;2023-11-19T05:35:45;11.00;99.90
7970;DHT22;4030;52.362;9.206;2023-11-19T05:38:11;11.00;99.90
7970;DHT22;4030;52.362;9.206;2023-11-19T05:40:37;11.00;99.90
7970;DHT22;4030;52.362;9.206;2023-11-19T05:43:04;11.00;99.90
7970;DHT22;4030;52.362;9.206;2023-11-19T05:45:31;11.00;99.90
7970;DHT22;4030;52.362;9.206;2023-11-19T05:47:57;11.10;99.90
7970;DHT22;4030;52.362;9.206;2023-11-19T05:50:23;11.10;99.90
7970;DHT22;4030;52.362;9.206;2023-11-19T05:52:49;11.10;99.90
7970;DHT22;4030;52.362;9.206;2023-11-19T05:55:15;11.10;99.90
7970;DHT22;4030;52.362;9.206;2023-11-19T05:57:41;11.10;99.90
7970;DHT22;4030;52.362;9.206;2023-11-19T06:00:07;11.10;99.90
7970;DHT22;4030;52.362;9.206;2023-11-19T06:02:35;11.10;99.90
7970;DHT22;4030;52.362;9.206;2023-11-19T06:05:04;11.10;99.90
7970;DHT22;4030;52.362;9.206;2023-11-19T06:07:32;11.10;99.90
7970;DHT22;4030;52.362;9.206;2023-11-19T06:09:58;11.10;99.90
7970;DHT22;4030;52.362;9.206;2023-11-19T06:12:23;11.10;99.90
7970;DHT22;4030;52.362;9.206;2023-11-19T06:14:49;11.10;99.90
7970;DHT22;4030;52.362;9.206;2023-11-19T06:17:15;11.10;99.90
7970;DHT22;4030;52.362;9.206;2023-11-19T06:19:40;11.20;99.90
7970;DHT22;4030;52.362;9.206;2023-11-19T06:22:06;11.20;99.90
7970;DHT22;4030;52.362;9.206;2023-11-19T06:24:32;11.20;99.90
7970;DHT22;4030;52.362;9.206;2023-11-19T06:26:57;11.20;99.90
7970;DHT22;4030;52.362;9.206;2023-11-19T06:29:23;11.20;99.90
7970;DHT22;4030;52.362;9.206;2023-11-19T06:31:50;11.20;99.90
7970;DHT22;4030;52.362;9.206;2023-11-19T06:34:15;11.20;99.90
7970;DHT22;4030;52.362;9.206;2023-11-19T06:36:41;11.20;99.90
7970;DHT22;4030;52.362;9.206;2023-11-19T06:39:10;11.20;99.90
7970;DHT22;4030;52.362;9.206;2023-11-19T06:41:36;11.20;99.90
7970;DHT22;4030;52.362;9.206;2023-11-19T06:44:05;11.20;99.90
7970;DHT22;4030;52.362;9.206;2023-11-19T06:46:31;11.30;99.90
7970;DHT22;4030;52.362;9.206;2023-11-19T06:48:57;11.20;99.90
7970;DHT22;4030;52.362;9.206;2023-11-19T06:51:23;11.20;99.90
7970;DHT22;4030;52.362;9.206;2023-11-19T06:53:50;11.30;99.90
7970;DHT22;4030;52.362;9.206;2023-11-19T06:56:23;11.30;99.90
7970;DHT22;4030;52.362;9.206;2023-11-19T06:58:50;11.30;99.90
7970;DHT22;4030;52.362;9.206;2023-11-19T07:01:16;11.30;99.90
7970;DHT22;4030;52.362;9.206;2023-11-19T07:03:47;11.30;99.90
7970;DHT22;4030;52.362;9.206;2023-11-19T07:06:13;11.30;99.90
7970;DHT22;4030;52.362;9.206;2023-11-19T07:08:40;11.30;99.90
7970;DHT22;4030;52.362;9.206;2023-11-19T07:11:06;11.40;99.90
7970;DHT22;4030;52.362;9.206;2023-11-19T07:13:32;11.30;99.90
7970;DHT22;4030;52.362;9.206;2023-11-19T07:15:58;11.40;99.90
7970;DHT22;4030;52.362;9.206;2023-11-19T07:18:23;11.40;99.90
7970;DHT22;4030;52.362;9.206;2023-11-19T07:20:50;11.40;99.90
7970;DHT22;4030;52.362;9.206;2023-11-19T07:23:15;11.50;99.90
7970;DHT22;4030;52.362;9.206;2023-11-19T07:25:43;11.50;99.90
7970;DHT22;4030;52.362;9.206;2023-11-19T07:28:12;11.50;99.90
7970;DHT22;4030;52.362;9.206;2023-11-19T07:30:38;11.50;99.90
7970;DHT22;4030;52.362;9.206;2023-11-19T07:33:04;11.50;99.90
7970;DHT22;4030;52.362;9.206;2023-11-19T07:35:31;11.50;99.90
7970;DHT22;4030;52.362;9.206;2023-11-19T07:37:57;11.60;99.90
7970;DHT22;4030;52.362;9.206;2023-11-19T07:40:24;11.60;99.90
7970;DHT22;4030;52.362;9.206;2023-11-19T07:42:50;11.60;99.90
7970;DHT22;4030;52.362;9.206;2023-11-19T07:45:16;11.70;99.90
7970;DHT22;4030;52.362;9.206;2023-11-19T07:47:43;11.70;99.90
7970;DHT22;4030;52.362;9.206;2023-11-19T07:50:11;11.70;99.90
7970;DHT22;4030;52.362;9.206;2023-11-19T07:52:39;11.70;99.90
7970;DHT22;4030;52.362;9.206;2023-11-19T07:55:05;11.80;99.90
7970;DHT22;4030;52.362;9.206;2023-11-19T07:57:31;11.80;99.90
7970;DHT22;4030;52.362;9.206;2023-11-19T07:59:57;11.80;99.90
7970;DHT22;4030;52.362;9.206;2023-11-19T08:02:23;11.90;99.90
7970;DHT22;4030;52.362;9.206;2023-11-19T08:04:50;11.80;99.90
7970;DHT22;4030;52.362;9.206;2023-11-19T08:07:17;11.90;99.90
7970;DHT22;4030;52.362;9.206;2023-11-19T08:09:44;11.90;99.90
7970;DHT22;4030;52.362;9.206;2023-11-19T08:12:10;11.80;99.90
7970;DHT22;4030;52.362;9.206;2023-11-19T08:14:36;11.80;99.90
7970;DHT22;4030;52.362;9.206;2023-11-19T08:17:02;11.80;99.90
7970;DHT22;4030;52.362;9.206;2023-11-19T08:19:28;11.80;99.90
7970;DHT22;4030;52.362;9.206;2023-11-19T08:21:54;11.90;99.90
7970;DHT22;4030;52.362;9.206;2023-11-19T08:24:19;11.90;99.90
7970;DHT22;4030;52.362;9.206;2023-11-19T08:26:45;11.90;99.90
7970;DHT22;4030;52.362;9.206;2023-11-19T08:29:11;12.00;99.90
7970;DHT22;4030;52.362;9.206;2023-11-19T08:31:36;12.10;99.90
7970;DHT22;4030;52.362;9.206;2023-11-19T08:34:02;12.10;99.90
7970;DHT22;4030;52.362;9.206;2023-11-19T08:36:28;12.20;99.90
7970;DHT22;4030;52.362;9.206;2023-11-19T08:38:54;12.20;99.90
7970;DHT22;4030;52.362;9.206;2023-11-19T08:41:20;12.30;99.90
7970;DHT22;4030;52.362;9.206;2023-11-19T08:43:47;12.40;99.90
7970;DHT22;4030;52.362;9.206;2023-11-19T08:46:12;12.50;99.90
7970;DHT22;4030;52.362;9.206;2023-11-19T08:48:39;12.60;99.90
7970;DHT22;4030;52.362;9.206;2023-11-19T08:51:05;12.60;99.90
7970;DHT22;4030;52.362;9.206;2023-11-19T08:53:31;12.50;99.90
7970;DHT22;4030;52.362;9.206;2023-11-19T08:55:56;12.50;99.90
7970;DHT22;4030;52.362;9.206;2023-11-19T08:58:22;12.60;99.90
7970;DHT22;4030;52.362;9.206;2023-11-19T09:00:48;12.60;99.90
7970;DHT22;4030;52.362;9.206;2023-11-19T09:03:13;12.80;99.90
7970;DHT22;4030;52.362;9.206;2023-11-19T09:05:39;12.90;99.90
7970;DHT22;4030;52.362;9.206;2023-11-19T09:08:06;13.00;99.90
7970;DHT22;4030;52.362;9.206;2023-11-19T09:10:32;13.00;99.90
7970;DHT22;4030;52.362;9.206;2023-11-19T09:12:58;13.10;99.90
7970;DHT22;4030;52.362;9.206;2023-11-19T09:15:23;13.10;99.90
7970;DHT22;4030;52.362;9.206;2023-11-19T09:17:49;13.20;99.90
7970;DHT22;4030;52.362;9.206;2023-11-19T09:20:15;13.20;99.90
7970;DHT22;4030;52.362;9.206;2023-11-19T09:22:41;13.40;99.90
7970;DHT22;4030;52.362;9.206;2023-11-19T09:25:08;13.40;99.90
7970;DHT22;4030;52.362;9.206;2023-11-19T09:27:34;13.50;99.90
7970;DHT22;4030;52.362;9.206;2023-11-19T09:30:00;13.70;99.90
7970;DHT22;4030;52.362;9.206;2023-11-19T09:32:26;13.90;99.90
7970;DHT22;4030;52.362;9.206;2023-11-19T09:34:51;14.40;99.90
7970;DHT22;4030;52.362;9.206;2023-11-19T09:37:17;14.70;99.30
7970;DHT22;4030;52.362;9.206;2023-11-19T09:39:43;14.70;99.10
7970;DHT22;4030;52.362;9.206;2023-11-19T09:42:09;14.60;99.20
7970;DHT22;4030;52.362;9.206;2023-11-19T09:44:38;14.50;99.20
7970;DHT22;4030;52.362;9.206;2023-11-19T09:47:06;14.40;99.30
7970;DHT22;4030;52.362;9.206;2023-11-19T09:49:32;14.40;99.40
7970;DHT22;4030;52.362;9.206;2023-11-19T09:51:58;14.60;99.10
7970;DHT22;4030;52.362;9.206;2023-11-19T09:54:24;14.60;98.90
7970;DHT22;4030;52.362;9.206;2023-11-19T09:56:50;14.60;98.70
7970;DHT22;4030;52.362;9.206;2023-11-19T09:59:16;14.70;98.90
7970;DHT22;4030;52.362;9.206;2023-11-19T10:01:43;14.80;98.60
7970;DHT22;4030;52.362;9.206;2023-11-19T10:04:12;15.10;98.60
7970;DHT22;4030;52.362;9.206;2023-11-19T10:06:41;15.30;97.90
7970;DHT22;4030;52.362;9.206;2023-11-19T10:09:07;15.30;97.80
7970;DHT22;4030;52.362;9.206;2023-11-19T10:11:33;15.30;97.80
7970;DHT22;4030;52.362;9.206;2023-11-19T10:13:59;15.30;97.80
7970;DHT22;4030;52.362;9.206;2023-11-19T10:16:29;15.80;97.70
7970;DHT22;4030;52.362;9.206;2023-11-19T10:18:56;16.10;96.80
7970;DHT22;4030;52.362;9.206;2023-11-19T10:21:22;16.80;95.90
7970;DHT22;4030;52.362;9.206;2023-11-19T10:23:52;17.50;94.80
7970;DHT22;4030;52.362;9.206;2023-11-19T10:26:22;17.90;94.30
7970;DHT22;4030;52.362;9.206;2023-11-19T10:28:48;18.10;93.70
7970;DHT22;4030;52.362;9.206;2023-11-19T10:31:15;18.20;93.80
7970;DHT22;4030;52.362;9.206;2023-11-19T10:33:42;18.40;93.70
7970;DHT22;4030;52.362;9.206;2023-11-19T10:36:11;18.60;93.30
7970;DHT22;4030;52.362;9.206;2023-11-19T10:38:40;19.30;92.80
7970;DHT22;4030;52.362;9.206;2023-11-19T10:41:06;20.30;91.40
7970;DHT22;4030;52.362;9.206;2023-11-19T10:43:43;21.10;90.00
7970;DHT22;4030;52.362;9.206;2023-11-19T10:46:13;22.00;86.80
7970;DHT22;4030;52.362;9.206;2023-11-19T10:48:39;22.70;84.20
7970;DHT22;4030;52.362;9.206;2023-11-19T10:51:06;23.30;81.60
7970;DHT22;4030;52.362;9.206;2023-11-19T10:53:36;23.40;79.50
7970;DHT22;4030;52.362;9.206;2023-11-19T10:56:06;23.40;78.90
7970;DHT22;4030;52.362;9.206;2023-11-19T10:58:36;23.40;78.20
7970;DHT22;4030;52.362;9.206;2023-11-19T11:01:13;24.00;76.10
7970;DHT22;4030;52.362;9.206;2023-11-19T11:03:41;24.80;73.50
7970;DHT22;4030;52.362;9.206;2023-11-19T11:06:08;25.10;71.30
7970;DHT22;4030;52.362;9.206;2023-11-19T11:08:36;25.70;69.20
7970;DHT22;4030;52.362;9.206;2023-11-19T11:11:03;26.60;65.70
7970;DHT22;4030;52.362;9.206;2023-11-19T11:13:31;26.80;63.60
7970;DHT22;4030;52.362;9.206;2023-11-19T11:15:58;26.80;61.90
7970;DHT22;4030;52.362;9.206;2023-11-19T11:18:24;25.50;64.40
7970;DHT22;4030;52.362;9.206;2023-11-19T11:21:13;25.20;66.70
7970;DHT22;4030;52.362;9.206;2023-11-19T11:26:49;26.00;63.90
7970;DHT22;4030;52.362;9.206;2023-11-19T11:29:40;25.60;63.50
7970;DHT22;4030;52.362;9.206;2023-11-19T11:32:33;26.30;62.40
7970;DHT22;4030;52.362;9.206;2023-11-19T11:37:44;26.20;60.00
7970;DHT22;4030;52.362;9.206;2023-11-19T11:40:17;25.30;62.40
7970;DHT22;4030;52.362;9.206;2023-11-19T11:42:46;24.20;65.00
7970;DHT22;4030;52.362;9.206;2023-11-19T11:45:14;23.70;67.50
7970;DHT22;4030;52.362;9.206;2023-11-19T11:50:16;25.00;63.80
7970;DHT22;4030;52.362;9.206;2023-11-19T11:58:05;26.40;59.10
7970;DHT22;4030;52.362;9.206;2023-11-19T12:00:38;25.40;61.30
7970;DHT22;4030;52.362;9.206;2023-11-19T12:03:06;24.50;63.60
7970;DHT22;4030;52.362;9.206;2023-11-19T12:05:33;23.50;65.60
7970;DHT22;4030;52.362;9.206;2023-11-19T12:08:05;22.80;68.10
7970;DHT22;4030;52.362;9.206;2023-11-19T12:10:37;22.00;70.40
7970;DHT22;4030;52.362;9.206;2023-11-19T12:13:10;21.30;72.70
7970;DHT22;4030;52.362;9.206;2023-11-19T12:18:23;19.90;77.70
7970;DHT22;4030;52.362;9.206;2023-11-19T12:20:52;19.50;79.50
7970;DHT22;4030;52.362;9.206;2023-11-19T12:23:18;19.10;81.30
7970;DHT22;4030;52.362;9.206;2023-11-19T12:25:44;18.70;82.80
7970;DHT22;4030;52.362;9.206;2023-11-19T12:28:15;18.40;84.00
7970;DHT22;4030;52.362;9.206;2023-11-19T12:30:45;18.10;85.20
7970;DHT22;4030;52.362;9.206;2023-11-19T12:33:14;17.80;86.10
7970;DHT22;4030;52.362;9.206;2023-11-19T12:35:43;17.60;87.40
7970;DHT22;4030;52.362;9.206;2023-11-19T12:38:22;17.40;88.20
7970;DHT22;4030;52.362;9.206;2023-11-19T12:41:05;17.20;88.80
7970;DHT22;4030;52.362;9.206;2023-11-19T12:43:32;17.10;89.70
7970;DHT22;4030;52.362;9.206;2023-11-19T12:45:59;17.10;90.20
7970;DHT22;4030;52.362;9.206;2023-11-19T12:48:25;16.90;90.40
7970;DHT22;4030;52.362;9.206;2023-11-19T12:50:58;16.90;90.60
7970;DHT22;4030;52.362;9.206;2023-11-19T12:53:26;16.90;90.80
7970;DHT22;4030;52.362;9.206;2023-11-19T12:55:54;16.80;90.90
7970;DHT22;4030;52.362;9.206;2023-11-19T12:58:31;16.70;91.10
7970;DHT22;4030;52.362;9.206;2023-11-19T13:01:07;16.60;91.60
7970;DHT22;4030;52.362;9.206;2023-11-19T13:03:36;16.60;91.60
7970;DHT22;4030;52.362;9.206;2023-11-19T13:06:07;16.60;91.80
7970;DHT22;4030;52.362;9.206;2023-11-19T13:08:47;16.60;91.80
7970;DHT22;4030;52.362;9.206;2023-11-19T13:11:15;16.50;91.90
7970;DHT22;4030;52.362;9.206;2023-11-19T13:14:01;16.40;92.00
7970;DHT22;4030;52.362;9.206;2023-11-19T13:16:35;16.30;92.20
7970;DHT22;4030;52.362;9.206;2023-11-19T13:19:01;16.20;92.30
7970;DHT22;4030;52.362;9.206;2023-11-19T13:21:28;16.10;92.50
7970;DHT22;4030;52.362;9.206;2023-11-19T13:23:55;16.00;92.70
7970;DHT22;4030;52.362;9.206;2023-11-19T13:26:21;16.00;92.80
7970;DHT22;4030;52.362;9.206;2023-11-19T13:28:47;15.90;92.80
7970;DHT22;4030;52.362;9.206;2023-11-19T13:31:13;15.90;92.80
7970;DHT22;4030;52.362;9.206;2023-11-19T13:33:39;16.00;92.90
7970;DHT22;4030;52.362;9.206;2023-11-19T13:36:05;16.00;92.90
7970;DHT22;4030;52.362;9.206;2023-11-19T13:38:35;15.90;92.90
7970;DHT22;4030;52.362;9.206;2023-11-19T13:41:03;15.80;92.90
7970;DHT22;4030;52.362;9.206;2023-11-19T13:43:30;15.80;93.00
7970;DHT22;4030;52.362;9.206;2023-11-19T13:45:56;15.80;93.00
7970;DHT22;4030;52.362;9.206;2023-11-19T13:48:23;15.80;93.00
7970;DHT22;4030;52.362;9.206;2023-11-19T13:50:50;15.80;93.10
7970;DHT22;4030;52.362;9.206;2023-11-19T13:53:16;15.70;93.10
7970;DHT22;4030;52.362;9.206;2023-11-19T13:55:42;15.70;93.30
7970;DHT22;4030;52.362;9.206;2023-11-19T13:58:08;15.70;93.40
7970;DHT22;4030;52.362;9.206;2023-11-19T14:00:34;15.70;93.30
7970;DHT22;4030;52.362;9.206;2023-11-19T14:03:00;15.80;93.30
7970;DHT22;4030;52.362;9.206;2023-11-19T14:05:26;15.70;93.20
7970;DHT22;4030;52.362;9.206;2023-11-19T14:07:51;15.70;93.20
7970;DHT22;4030;52.362;9.206;2023-11-19T14:10:19;15.60;93.30
7970;DHT22;4030;52.362;9.206;2023-11-19T14:12:45;15.50;93.30
7970;DHT22;4030;52.362;9.206;2023-11-19T14:15:11;15.50;93.50
7970;DHT22;4030;52.362;9.206;2023-11-19T14:17:39;15.30;93.60
7970;DHT22;4030;52.362;9.206;2023-11-19T14:20:06;15.30;93.80
7970;DHT22;4030;52.362;9.206;2023-11-19T14:22:42;15.20;93.90
7970;DHT22;4030;52.362;9.206;2023-11-19T14:25:09;15.10;93.90
7970;DHT22;4030;52.362;9.206;2023-11-19T14:27:40;15.10;94.10
7970;DHT22;4030;52.362;9.206;2023-11-19T14:30:07;15.00;94.20
7970;DHT22;4030;52.362;9.206;2023-11-19T14:32:38;14.90;94.30
7970;DHT22;4030;52.362;9.206;2023-11-19T14:35:05;14.90;94.50
7970;DHT22;4030;52.362;9.206;2023-11-19T14:37:31;14.80;94.60
7970;DHT22;4030;52.362;9.206;2023-11-19T14:39:57;14.70;94.80
7970;DHT22;4030;52.362;9.206;2023-11-19T14:42:23;14.60;95.30
7970;DHT22;4030;52.362;9.206;2023-11-19T14:44:50;14.60;95.00
7970;DHT22;4030;52.362;9.206;2023-11-19T14:47:22;14.50;95.20
7970;DHT22;4030;52.362;9.206;2023-11-19T14:49:48;14.50;95.30
7970;DHT22;4030;52.362;9.206;2023-11-19T14:52:14;14.50;95.40
7970;DHT22;4030;52.362;9.206;2023-11-19T14:54:39;14.40;95.50
7970;DHT22;4030;52.362;9.206;2023-11-19T14:57:06;14.30;95.60
7970;DHT22;4030;52.362;9.206;2023-11-19T14:59:34;14.20;95.70
7970;DHT22;4030;52.362;9.206;2023-11-19T15:02:00;14.20;95.80
7970;DHT22;4030;52.362;9.206;2023-11-19T15:04:28;14.20;95.90
7970;DHT22;4030;52.362;9.206;2023-11-19T15:06:57;14.10;95.90
7970;DHT22;4030;52.362;9.206;2023-11-19T15:09:23;14.10;96.00
7970;DHT22;4030;52.362;9.206;2023-11-19T15:11:50;14.00;96.00
7970;DHT22;4030;52.362;9.206;2023-11-19T15:14:16;14.00;96.10
7970;DHT22;4030;52.362;9.206;2023-11-19T15:16:44;14.00;96.20
7970;DHT22;4030;52.362;9.206;2023-11-19T15:19:11;13.90;96.30
7970;DHT22;4030;52.362;9.206;2023-11-19T15:21:40;13.90;96.40
7970;DHT22;4030;52.362;9.206;2023-11-19T15:24:07;13.90;96.50
7970;DHT22;4030;52.362;9.206;2023-11-19T15:26:35;13.80;96.50
7970;DHT22;4030;52.362;9.206;2023-11-19T15:29:04;13.80;96.60
7970;DHT22;4030;52.362;9.206;2023-11-19T15:31:30;13.80;96.70
7970;DHT22;4030;52.362;9.206;2023-11-19T15:33:56;13.80;96.70
7970;DHT22;4030;52.362;9.206;2023-11-19T15:36:22;13.70;96.80
7970;DHT22;4030;52.362;9.206;2023-11-19T15:38:48;13.70;96.80
7970;DHT22;4030;52.362;9.206;2023-11-19T15:41:14;13.70;96.90
7970;DHT22;4030;52.362;9.206;2023-11-19T15:43:40;13.70;97.00
7970;DHT22;4030;52.362;9.206;2023-11-19T15:46:09;13.60;97.00
7970;DHT22;4030;52.362;9.206;2023-11-19T15:48:36;13.60;97.10
7970;DHT22;4030;52.362;9.206;2023-11-19T15:51:02;13.60;97.10
7970;DHT22;4030;52.362;9.206;2023-11-19T15:53:29;13.60;97.20
7970;DHT22;4030;52.362;9.206;2023-11-19T15:55:56;13.50;97.30
7970;DHT22;4030;52.362;9.206;2023-11-19T15:58:22;13.60;97.50
7970;DHT22;4030;52.362;9.206;2023-11-19T16:00:48;13.50;97.50
7970;DHT22;4030;52.362;9.206;2023-11-19T16:03:14;13.50;97.50
7970;DHT22;4030;52.362;9.206;2023-11-19T16:05:40;13.40;97.60
7970;DHT22;4030;52.362;9.206;2023-11-19T16:08:07;13.40;97.60
7970;DHT22;4030;52.362;9.206;2023-11-19T16:10:36;13.40;97.70
7970;DHT22;4030;52.362;9.206;2023-11-19T16:13:08;13.40;97.70
7970;DHT22;4030;52.362;9.206;2023-11-19T16:15:35;13.40;97.80
7970;DHT22;4030;52.362;9.206;2023-11-19T16:18:01;13.30;97.80
7970;DHT22;4030;52.362;9.206;2023-11-19T16:20:26;13.30;97.80